Huvudsida
METAR-TAF:

METAR-TAF

Flygplatser :

Ivato International Airport

Antananarivo, Madagaskar

latitud: 18-48S, longitud: 047-29E, höjd: 1279 m

Aktuellt väderrapport

Denna rapport gjordes för 40 minuter sedan, klockan 12:30 UTC
Vind 12 kt från sydost, varierande mellan ost/sydost och syd
Temperatur 21°C
Fuktighet 64%
Tryck 1022 hPa
Sikt 10 km eller mer
Få moln på en höjd av 2000 ft
Spridda moln på en höjd av 2300 ft

METAR: FMMI 201230Z 14012KT 110V190 9999 FEW020 SCT023 21/14 Q1022 NOSIG

Tid: 16:10 (13:10 UTC)

Väderprognos

Denna rapport gjordes för 2 timmar och 10 minuter sedan, klockan 11:00 UTC
Prognos gäller från 20 kl. 12 UTC till 21 kl. 18 UTC
Vind 15 kt från syd/sydost i byarna ända upp till 25 kt
Sikt 10 km eller mer
Brutna moln på en höjd av 2000 ft

TAF: FMMI 201100Z 2012/2118 15015G25KT 9999 BKN020

Aktuella väderrapporter och prognoser från 4000 flygplatser (METAR- och TAF-rapporter).

De tillgängliga stationerna syns som gula och röda prickar på kartan.

För musen över prickarna för att se namnen på stationerna.

Klicka sedan för att få väderrapporter och prognoser.

För att ändra kartan: Klicka på de gröna knapparna med ett svart kors på för att zooma in; den gröna knappen med ett streck på för att zooma ut; eller på de gröna pilarna för angränsande kartor.


METAR-TAF: